createdAt,value
2022-07-28T00:02:07.284Z,21.32
2022-07-28T00:04:34.358Z,21.30
2022-07-28T00:07:01.605Z,21.25
2022-07-28T00:09:28.787Z,21.30
2022-07-28T00:11:55.311Z,21.24
2022-07-28T00:14:22.680Z,21.14
2022-07-28T00:16:49.354Z,21.13
2022-07-28T00:19:16.648Z,20.97
2022-07-28T00:21:43.369Z,20.89
2022-07-28T00:24:10.172Z,20.97
2022-07-28T00:26:37.384Z,20.93
2022-07-28T00:29:04.897Z,21.01
2022-07-28T00:31:31.604Z,21.07
2022-07-28T00:33:58.292Z,21.11
2022-07-28T00:36:25.814Z,21.12
2022-07-28T00:38:52.948Z,21.17
2022-07-28T00:41:20.569Z,21.12
2022-07-28T00:43:49.294Z,21.00
2022-07-28T00:46:18.117Z,20.87
2022-07-28T00:48:48.227Z,20.87
2022-07-28T00:51:18.691Z,20.75
2022-07-28T00:53:45.721Z,20.80
2022-07-28T00:56:12.809Z,20.80
2022-07-28T00:58:40.235Z,20.73
2022-07-28T01:01:09.508Z,20.71
2022-07-28T01:03:41.887Z,20.73
2022-07-28T01:06:26.291Z,20.58
2022-07-28T01:09:10.129Z,20.74
2022-07-28T01:12:05.438Z,20.73
2022-07-28T01:14:44.977Z,20.75
2022-07-28T01:17:25.789Z,20.62
2022-07-28T01:20:06.067Z,20.57
2022-07-28T01:22:38.329Z,20.66
2022-07-28T01:25:51.198Z,20.54
2022-07-28T01:28:23.551Z,20.66
2022-07-28T01:30:54.579Z,20.76
2022-07-28T01:33:44.257Z,20.76
2022-07-28T01:36:15.344Z,20.83
2022-07-28T01:38:43.910Z,20.77
2022-07-28T01:41:14.706Z,20.64
2022-07-28T01:43:45.791Z,20.54
2022-07-28T01:46:14.487Z,20.65
2022-07-28T01:48:43.093Z,20.74
2022-07-28T01:51:12.547Z,20.60
2022-07-28T01:53:40.682Z,20.63
2022-07-28T01:56:08.045Z,20.72
2022-07-28T01:58:37.235Z,20.74
2022-07-28T02:01:05.749Z,20.65
2022-07-28T02:03:34.419Z,20.73
2022-07-28T02:06:04.241Z,20.77
2022-07-28T02:08:33.156Z,20.67
2022-07-28T02:11:18.602Z,20.68
2022-07-28T02:13:48.183Z,20.70
2022-07-28T02:16:17.391Z,20.73
2022-07-28T02:18:45.721Z,20.70
2022-07-28T02:21:13.397Z,20.70
2022-07-28T02:23:43.123Z,20.61
2022-07-28T02:26:12.206Z,20.57
2022-07-28T02:28:43.576Z,20.49
2022-07-28T02:31:20.021Z,20.42
2022-07-28T02:34:00.338Z,20.49
2022-07-28T02:36:32.102Z,20.50
2022-07-28T02:39:07.180Z,20.49
2022-07-28T02:41:38.076Z,20.49
2022-07-28T02:44:12.092Z,20.47
2022-07-28T02:46:44.792Z,20.40
2022-07-28T02:49:20.297Z,20.39
2022-07-28T02:51:49.296Z,20.36
2022-07-28T02:54:17.966Z,20.37
2022-07-28T02:56:53.721Z,20.36
2022-07-28T02:59:21.598Z,20.29
2022-07-28T03:01:49.629Z,20.18
2022-07-28T03:04:17.728Z,20.14
2022-07-28T03:06:44.825Z,20.13
2022-07-28T03:09:11.421Z,20.13
2022-07-28T03:11:52.543Z,20.12
2022-07-28T03:14:19.083Z,20.05
2022-07-28T03:16:45.801Z,20.08
2022-07-28T03:19:12.468Z,20.06
2022-07-28T03:21:41.322Z,20.04
2022-07-28T03:24:10.482Z,20.06
2022-07-28T03:26:43.415Z,19.99
2022-07-28T03:29:11.124Z,19.95
2022-07-28T03:31:40.251Z,19.85
2022-07-28T03:34:07.241Z,19.92
2022-07-28T03:36:42.451Z,19.90
2022-07-28T03:39:11.811Z,19.91
2022-07-28T03:41:42.211Z,19.90
2022-07-28T03:44:10.968Z,19.87
2022-07-28T03:46:44.678Z,19.85
2022-07-28T03:49:11.563Z,19.88
2022-07-28T03:51:38.433Z,19.88
2022-07-28T03:54:05.031Z,19.83
2022-07-28T03:56:32.097Z,19.81
2022-07-28T03:58:58.660Z,19.79
2022-07-28T04:01:25.307Z,19.80
2022-07-28T04:03:51.889Z,19.85
2022-07-28T04:06:18.710Z,19.80
2022-07-28T04:08:45.307Z,19.76
2022-07-28T04:11:12.612Z,19.76
2022-07-28T04:13:39.316Z,19.78
2022-07-28T04:16:07.178Z,19.77
2022-07-28T04:18:34.177Z,19.77
2022-07-28T04:21:00.793Z,19.71
2022-07-28T04:23:28.115Z,19.72
2022-07-28T04:25:55.262Z,19.72
2022-07-28T04:28:22.131Z,19.72
2022-07-28T04:30:48.708Z,19.73
2022-07-28T04:33:15.403Z,19.70
2022-07-28T04:35:42.025Z,19.71
2022-07-28T04:38:08.635Z,19.78
2022-07-28T04:40:35.271Z,19.80
2022-07-28T04:43:03.601Z,19.89
2022-07-28T04:45:30.323Z,19.95
2022-07-28T04:47:56.909Z,20.04
2022-07-28T04:50:23.694Z,20.10
2022-07-28T04:52:58.679Z,20.22
2022-07-28T04:55:25.629Z,20.32
2022-07-28T04:57:52.414Z,20.43
2022-07-28T05:00:19.934Z,20.43
2022-07-28T05:02:49.044Z,20.44
2022-07-28T05:05:15.783Z,20.50
2022-07-28T05:07:42.392Z,20.56
2022-07-28T05:10:11.823Z,20.57
2022-07-28T05:12:38.961Z,20.62
2022-07-28T05:15:06.688Z,20.66
2022-07-28T05:17:33.276Z,20.69
2022-07-28T05:19:59.928Z,20.72
2022-07-28T05:22:26.884Z,20.73
2022-07-28T05:24:53.431Z,20.69
2022-07-28T05:27:20.473Z,20.79
2022-07-28T05:29:48.093Z,20.79
2022-07-28T05:32:16.472Z,20.81
2022-07-28T05:34:44.665Z,20.82
2022-07-28T05:37:11.284Z,20.83
2022-07-28T05:39:37.833Z,20.90
2022-07-28T05:42:04.846Z,20.86
2022-07-28T05:44:37.276Z,20.83
2022-07-28T05:47:04.859Z,20.93
2022-07-28T05:49:31.503Z,20.98
2022-07-28T05:51:58.053Z,21.06
2022-07-28T05:54:25.887Z,21.10
2022-07-28T05:56:52.791Z,21.17
2022-07-28T05:59:19.407Z,21.34
2022-07-28T06:01:46.548Z,21.45
2022-07-28T06:04:29.434Z,21.48
2022-07-28T06:06:56.313Z,21.50
2022-07-28T06:09:22.891Z,21.51
2022-07-28T06:11:52.452Z,21.58
2022-07-28T06:14:19.411Z,21.61
2022-07-28T06:16:50.888Z,21.61
2022-07-28T06:19:18.283Z,21.66
2022-07-28T06:21:44.915Z,21.62
2022-07-28T06:24:11.905Z,21.73
2022-07-28T06:26:44.380Z,21.86
2022-07-28T06:29:11.516Z,22.05
2022-07-28T06:31:38.989Z,22.14
2022-07-28T06:34:05.786Z,22.32
2022-07-28T06:36:32.363Z,22.46
2022-07-28T06:38:58.954Z,22.64
2022-07-28T06:41:25.483Z,22.81
2022-07-28T06:43:52.362Z,22.89
2022-07-28T06:46:19.624Z,23.02
2022-07-28T06:48:46.682Z,23.20
2022-07-28T06:51:15.009Z,23.25
2022-07-28T06:53:41.695Z,23.29
2022-07-28T06:56:10.881Z,23.41
2022-07-28T06:58:40.460Z,23.34
2022-07-28T07:01:07.734Z,23.27
2022-07-28T07:03:34.894Z,23.29
2022-07-28T07:06:01.487Z,23.35
2022-07-28T07:08:28.242Z,23.36
2022-07-28T07:10:55.140Z,23.47
2022-07-28T07:13:21.711Z,23.54
2022-07-28T07:15:48.268Z,23.60
2022-07-28T07:18:14.871Z,23.69
2022-07-28T07:20:41.434Z,23.58
2022-07-28T07:23:08.017Z,23.85
2022-07-28T07:25:34.655Z,23.79
2022-07-28T07:28:01.200Z,23.87
2022-07-28T07:30:27.749Z,24.09
2022-07-28T07:32:54.312Z,24.10
2022-07-28T07:35:20.993Z,24.63
2022-07-28T07:37:47.547Z,25.29
2022-07-28T07:40:14.248Z,25.88
2022-07-28T07:42:40.822Z,26.23
2022-07-28T07:45:07.787Z,26.29
2022-07-28T07:47:34.363Z,25.94
2022-07-28T07:50:04.157Z,26.03
2022-07-28T07:52:31.495Z,25.97
2022-07-28T07:54:58.223Z,26.11
2022-07-28T07:57:24.874Z,26.19
2022-07-28T07:59:51.392Z,26.71
2022-07-28T08:02:17.948Z,27.20
2022-07-28T08:04:44.513Z,27.08
2022-07-28T08:07:11.365Z,27.21
2022-07-28T08:09:38.626Z,26.62
2022-07-28T08:12:05.717Z,26.02
2022-07-28T08:14:32.310Z,25.65
2022-07-28T08:16:59.486Z,26.00
2022-07-28T08:19:26.653Z,26.51
2022-07-28T08:21:53.317Z,26.72
2022-07-28T08:24:31.592Z,27.57
2022-07-28T08:27:03.724Z,27.88
2022-07-28T08:29:30.421Z,28.60
2022-07-28T08:31:57.250Z,28.85
2022-07-28T08:34:31.083Z,28.38
2022-07-28T08:37:02.063Z,27.87
2022-07-28T08:39:29.263Z,27.85
2022-07-28T08:42:19.864Z,28.07
2022-07-28T08:45:05.918Z,28.31
2022-07-28T08:47:45.920Z,28.95
2022-07-28T08:50:24.276Z,28.27
2022-07-28T08:52:52.732Z,28.01
2022-07-28T08:55:32.059Z,27.89
2022-07-28T08:58:00.113Z,27.99
2022-07-28T09:00:27.087Z,27.48
2022-07-28T09:02:54.347Z,27.28
2022-07-28T09:05:22.542Z,27.34
2022-07-28T09:07:54.448Z,27.51
2022-07-28T09:10:21.941Z,28.27
2022-07-28T09:12:48.593Z,29.10
2022-07-28T09:15:15.196Z,30.75
2022-07-28T09:17:43.032Z,32.00
2022-07-28T09:20:11.713Z,32.88
2022-07-28T09:22:55.956Z,33.08
2022-07-28T09:25:22.979Z,33.96
2022-07-28T09:27:51.730Z,33.79
2022-07-28T09:30:31.285Z,34.46
2022-07-28T09:33:41.357Z,35.32
2022-07-28T09:36:14.574Z,35.33
2022-07-28T09:38:41.935Z,34.20
2022-07-28T09:41:08.588Z,33.56
2022-07-28T09:43:35.156Z,32.68
2022-07-28T09:46:18.966Z,33.11
2022-07-28T09:48:48.944Z,34.47
2022-07-28T09:51:28.633Z,35.20
2022-07-28T09:54:10.751Z,35.93
2022-07-28T09:56:46.648Z,36.20
2022-07-28T09:59:15.101Z,36.58
2022-07-28T10:01:56.653Z,37.89
2022-07-28T10:04:38.210Z,37.18
2022-07-28T10:07:07.619Z,37.35
2022-07-28T10:09:34.459Z,37.53
2022-07-28T10:12:23.286Z,37.62
2022-07-28T10:14:52.026Z,37.63
2022-07-28T10:17:29.671Z,38.13
2022-07-28T10:20:05.212Z,37.97
2022-07-28T10:22:34.144Z,39.08
2022-07-28T10:25:05.753Z,39.50
2022-07-28T10:27:32.771Z,40.55
2022-07-28T10:30:01.360Z,40.75
2022-07-28T10:32:31.297Z,40.04
2022-07-28T10:35:04.611Z,39.32
2022-07-28T10:37:32.597Z,38.57
2022-07-28T10:40:10.668Z,37.85
2022-07-28T10:42:39.055Z,37.88
2022-07-28T10:45:07.916Z,38.69
2022-07-28T10:47:35.999Z,39.29
2022-07-28T10:50:03.908Z,38.55
2022-07-28T10:52:46.647Z,37.17
2022-07-28T10:55:23.231Z,36.11
2022-07-28T10:58:36.463Z,35.02
2022-07-28T11:01:06.372Z,35.52
2022-07-28T11:03:38.326Z,35.93
2022-07-28T11:06:23.991Z,35.90
2022-07-28T11:08:56.622Z,34.94
2022-07-28T11:11:59.135Z,33.95
2022-07-28T11:14:39.113Z,33.72
2022-07-28T11:17:10.739Z,33.88
2022-07-28T11:19:55.596Z,34.22
2022-07-28T11:22:32.699Z,33.96
2022-07-28T11:25:00.784Z,33.32
2022-07-28T11:27:50.333Z,32.56
2022-07-28T11:30:26.182Z,32.75
2022-07-28T11:32:55.677Z,32.76
2022-07-28T11:35:24.320Z,32.73
2022-07-28T11:38:03.123Z,32.80
2022-07-28T11:40:30.586Z,32.33
2022-07-28T11:43:22.821Z,32.36
2022-07-28T11:46:10.124Z,31.99
2022-07-28T11:48:40.412Z,32.27
2022-07-28T11:51:07.070Z,32.41
2022-07-28T11:53:45.463Z,32.48
2022-07-28T11:56:23.360Z,32.68
2022-07-28T11:58:57.239Z,32.55
2022-07-28T12:01:23.767Z,32.42
2022-07-28T12:03:55.262Z,32.44
2022-07-28T12:06:35.433Z,32.19
2022-07-28T12:09:03.787Z,32.34
2022-07-28T12:11:40.924Z,32.79
2022-07-28T12:14:13.816Z,33.21
2022-07-28T12:16:42.705Z,33.47
2022-07-28T12:19:10.773Z,33.55
2022-07-28T12:21:46.103Z,33.76
2022-07-28T12:24:29.451Z,33.49
2022-07-28T12:26:57.609Z,34.10
2022-07-28T12:29:24.674Z,34.37
2022-07-28T12:31:59.739Z,34.30
2022-07-28T12:34:30.758Z,33.99
2022-07-28T12:37:02.473Z,33.52
2022-07-28T12:39:30.886Z,33.38
2022-07-28T12:42:08.812Z,33.47
2022-07-28T12:44:37.654Z,33.85
2022-07-28T12:47:06.348Z,34.24
2022-07-28T12:49:33.122Z,34.21
2022-07-28T12:52:17.076Z,33.96
2022-07-28T12:54:53.496Z,33.78
2022-07-28T12:57:50.596Z,34.09
2022-07-28T13:00:23.915Z,34.76
2022-07-28T13:02:53.664Z,34.59
2022-07-28T13:05:56.047Z,34.39
2022-07-28T13:08:24.515Z,34.09
2022-07-28T13:10:56.659Z,33.92
2022-07-28T13:13:24.345Z,34.07
2022-07-28T13:16:17.437Z,33.61
2022-07-28T13:18:47.757Z,33.35
2022-07-28T13:21:15.655Z,33.20
2022-07-28T13:23:43.106Z,32.81
2022-07-28T13:26:09.743Z,32.49
2022-07-28T13:28:36.421Z,32.43
2022-07-28T13:31:03.103Z,32.41
2022-07-28T13:33:29.919Z,32.12
2022-07-28T13:35:56.700Z,32.02
2022-07-28T13:38:23.425Z,31.96
2022-07-28T13:40:50.005Z,32.40
2022-07-28T13:43:16.608Z,31.98
2022-07-28T13:45:43.260Z,31.90
2022-07-28T13:48:09.917Z,32.05
2022-07-28T13:50:36.563Z,31.79
2022-07-28T13:53:03.262Z,31.52
2022-07-28T13:55:29.829Z,31.88
2022-07-28T13:57:56.812Z,31.82
2022-07-28T14:00:23.839Z,31.94
2022-07-28T14:02:51.498Z,31.89
2022-07-28T14:05:18.683Z,31.83
2022-07-28T14:07:48.386Z,31.76
2022-07-28T14:10:18.979Z,31.78
2022-07-28T14:12:46.221Z,31.86
2022-07-28T14:15:13.851Z,31.52
2022-07-28T14:17:43.364Z,31.34
2022-07-28T14:20:14.410Z,30.80
2022-07-28T14:22:42.545Z,30.79
2022-07-28T14:25:09.635Z,30.99
2022-07-28T14:27:36.343Z,30.84
2022-07-28T14:30:04.263Z,30.81
2022-07-28T14:32:31.890Z,30.79
2022-07-28T14:34:58.712Z,30.86
2022-07-28T14:37:26.120Z,30.94
2022-07-28T14:39:52.712Z,30.69
2022-07-28T14:42:19.308Z,30.81
2022-07-28T14:44:45.908Z,30.79
2022-07-28T14:47:12.628Z,30.67
2022-07-28T14:49:58.188Z,30.63
2022-07-28T14:52:27.069Z,30.63
2022-07-28T14:54:57.288Z,30.71
2022-07-28T14:57:24.484Z,30.78
2022-07-28T15:00:14.054Z,30.93
2022-07-28T15:02:41.227Z,30.67
2022-07-28T15:05:08.991Z,30.81
2022-07-28T15:07:36.364Z,30.64
2022-07-28T15:10:04.369Z,30.39
2022-07-28T15:12:31.167Z,30.34
2022-07-28T15:14:57.806Z,30.35
2022-07-28T15:17:24.333Z,30.33
2022-07-28T15:19:50.872Z,30.24
2022-07-28T15:22:17.516Z,30.10
2022-07-28T15:24:45.807Z,30.35
2022-07-28T15:27:12.513Z,30.74
2022-07-28T15:29:39.284Z,30.69
2022-07-28T15:32:06.203Z,30.86
2022-07-28T15:34:37.136Z,30.98
2022-07-28T15:37:03.708Z,30.95
2022-07-28T15:39:30.956Z,31.05
2022-07-28T15:41:58.345Z,31.17
2022-07-28T15:44:26.187Z,30.91
2022-07-28T15:46:53.172Z,30.71
2022-07-28T15:49:19.992Z,30.80
2022-07-28T15:51:46.708Z,30.62
2022-07-28T15:54:14.055Z,30.28
2022-07-28T15:56:41.947Z,30.53
2022-07-28T15:59:09.148Z,30.50
2022-07-28T16:01:36.062Z,30.43
2022-07-28T16:04:02.885Z,30.56
2022-07-28T16:06:48.493Z,30.62
2022-07-28T16:09:15.324Z,30.71
2022-07-28T16:11:42.041Z,30.64
2022-07-28T16:14:08.770Z,30.72
2022-07-28T16:16:35.775Z,30.81
2022-07-28T16:19:02.728Z,30.83
2022-07-28T16:21:29.467Z,30.75
2022-07-28T16:23:56.104Z,30.79
2022-07-28T16:26:22.737Z,30.87
2022-07-28T16:28:49.334Z,30.85
2022-07-28T16:31:16.790Z,30.78
2022-07-28T16:33:43.427Z,30.58
2022-07-28T16:36:10.013Z,30.52
2022-07-28T16:38:36.659Z,30.52
2022-07-28T16:41:03.556Z,30.54
2022-07-28T16:43:31.361Z,30.60
2022-07-28T16:45:58.017Z,30.52
2022-07-28T16:48:24.689Z,30.40
2022-07-28T16:50:51.267Z,30.40
2022-07-28T16:53:17.857Z,30.34
2022-07-28T16:55:46.937Z,30.42
2022-07-28T16:58:14.117Z,30.51
2022-07-28T17:00:40.857Z,30.42
2022-07-28T17:03:07.565Z,30.29
2022-07-28T17:05:37.736Z,30.23
2022-07-28T17:08:04.900Z,30.12
2022-07-28T17:10:31.721Z,30.08
2022-07-28T17:12:58.598Z,29.97
2022-07-28T17:15:25.260Z,30.01
2022-07-28T17:17:52.731Z,29.99
2022-07-28T17:20:20.883Z,29.97
2022-07-28T17:22:47.675Z,29.74
2022-07-28T17:28:01.528Z,29.82
2022-07-28T17:30:29.852Z,29.84
2022-07-28T17:32:58.826Z,29.72
2022-07-28T17:35:31.496Z,29.57
2022-07-28T17:38:01.435Z,29.51
2022-07-28T17:40:28.044Z,29.46
2022-07-28T17:42:54.628Z,29.45
2022-07-28T17:45:21.735Z,29.53
2022-07-28T17:47:48.289Z,29.45
2022-07-28T17:50:15.094Z,29.37
2022-07-28T17:52:42.962Z,29.48
2022-07-28T17:55:29.158Z,29.30
2022-07-28T17:57:57.726Z,29.33
2022-07-28T18:00:24.357Z,29.34
2022-07-28T18:02:51.106Z,29.43
2022-07-28T18:05:17.862Z,29.43
2022-07-28T18:07:51.185Z,29.34
2022-07-28T18:10:24.514Z,29.32
2022-07-28T18:12:51.992Z,29.19
2022-07-28T18:15:18.894Z,29.09
2022-07-28T18:17:54.458Z,28.95
2022-07-28T18:20:22.530Z,28.87
2022-07-28T18:22:49.350Z,28.80
2022-07-28T18:25:15.933Z,28.58
2022-07-28T18:27:42.690Z,28.44
2022-07-28T18:30:10.105Z,28.44
2022-07-28T18:32:36.625Z,28.46
2022-07-28T18:35:03.196Z,28.46
2022-07-28T18:37:30.884Z,28.41
2022-07-28T18:39:57.672Z,28.37
2022-07-28T18:42:24.455Z,28.35
2022-07-28T18:44:51.072Z,28.33
2022-07-28T18:47:17.643Z,28.21
2022-07-28T18:49:44.201Z,28.17
2022-07-28T18:52:10.746Z,28.09
2022-07-28T18:54:37.430Z,28.08
2022-07-28T18:57:04.209Z,28.11
2022-07-28T18:59:30.831Z,28.12
2022-07-28T19:01:57.476Z,28.10
2022-07-28T19:04:24.112Z,28.08
2022-07-28T19:06:51.232Z,28.04
2022-07-28T19:09:18.858Z,27.97
2022-07-28T19:11:46.429Z,27.91
2022-07-28T19:14:15.509Z,27.93
2022-07-28T19:16:42.895Z,27.91
2022-07-28T19:19:09.614Z,27.87
2022-07-28T19:21:36.235Z,27.67
2022-07-28T19:24:03.723Z,27.68
2022-07-28T19:26:30.300Z,27.63
2022-07-28T19:28:57.696Z,27.61
2022-07-28T19:31:25.448Z,27.54
2022-07-28T19:33:52.578Z,27.49
2022-07-28T19:36:19.962Z,27.40
2022-07-28T19:38:46.529Z,27.35
2022-07-28T19:41:13.458Z,27.31
2022-07-28T19:43:40.425Z,27.31
2022-07-28T19:46:07.299Z,27.36
2022-07-28T19:48:34.260Z,27.38
2022-07-28T19:51:01.004Z,27.40
2022-07-28T19:53:32.249Z,27.40
2022-07-28T19:56:01.274Z,27.41
2022-07-28T19:58:28.420Z,27.25
2022-07-28T20:00:55.791Z,27.17
2022-07-28T20:04:01.862Z,27.18
2022-07-28T20:06:10.143Z,27.19
2022-07-28T20:08:36.854Z,27.16
2022-07-28T20:11:03.614Z,27.17
2022-07-28T20:13:30.270Z,27.19
2022-07-28T20:15:56.814Z,27.17
2022-07-28T20:18:23.479Z,27.20
2022-07-28T20:20:50.277Z,27.18
2022-07-28T20:23:16.900Z,27.17
2022-07-28T20:25:45.214Z,27.18
2022-07-28T20:28:12.395Z,27.19
2022-07-28T20:30:39.576Z,27.16
2022-07-28T20:33:07.882Z,27.10
2022-07-28T20:35:34.494Z,27.12
2022-07-28T20:38:01.577Z,27.12
2022-07-28T20:40:28.176Z,27.09
2022-07-28T20:42:54.849Z,27.13
2022-07-28T20:45:21.598Z,27.09
2022-07-28T20:47:48.163Z,27.08
2022-07-28T20:50:15.664Z,26.98
2022-07-28T20:52:42.405Z,26.98
2022-07-28T20:55:11.251Z,26.94
2022-07-28T20:57:37.923Z,26.94
2022-07-28T21:00:06.412Z,26.91
2022-07-28T21:02:33.036Z,26.90
2022-07-28T21:04:59.642Z,26.88
2022-07-28T21:08:05.239Z,26.84
2022-07-28T21:10:13.674Z,26.70
2022-07-28T21:12:40.329Z,26.72
2022-07-28T21:15:08.105Z,26.66
2022-07-28T21:17:34.901Z,26.60
2022-07-28T21:20:01.780Z,26.49
2022-07-28T21:22:28.401Z,26.50
2022-07-28T21:24:55.814Z,26.47
2022-07-28T21:27:23.682Z,26.50
2022-07-28T21:32:17.274Z,26.35
2022-07-28T21:34:43.855Z,26.31
2022-07-28T21:37:11.615Z,26.26
2022-07-28T21:39:39.022Z,26.23
2022-07-28T21:42:08.448Z,26.19
2022-07-28T21:44:36.832Z,26.15
2022-07-28T21:47:03.837Z,26.13
2022-07-28T21:49:31.201Z,26.15
2022-07-28T21:51:57.828Z,26.12
2022-07-28T21:54:24.471Z,26.06
2022-07-28T21:56:51.115Z,26.07
2022-07-28T21:59:17.685Z,26.01
2022-07-28T22:01:44.463Z,25.98
2022-07-28T22:04:11.044Z,25.96
2022-07-28T22:06:37.650Z,25.89
2022-07-28T22:09:04.414Z,25.88
2022-07-28T22:11:31.019Z,25.83
2022-07-28T22:13:57.680Z,25.79
2022-07-28T22:16:24.265Z,25.75
2022-07-28T22:18:50.837Z,25.73
2022-07-28T22:21:17.431Z,25.71
2022-07-28T22:23:44.078Z,25.68
2022-07-28T22:26:10.662Z,25.63
2022-07-28T22:28:37.286Z,25.59
2022-07-28T22:31:08.786Z,25.58
2022-07-28T22:33:38.077Z,25.49
2022-07-28T22:36:08.874Z,25.40
2022-07-28T22:38:35.885Z,25.37
2022-07-28T22:41:02.651Z,25.39
2022-07-28T22:43:31.976Z,25.30
2022-07-28T22:45:58.637Z,25.32
2022-07-28T22:48:25.308Z,25.26
2022-07-28T22:50:52.011Z,25.28
2022-07-28T22:53:18.639Z,25.24
2022-07-28T22:55:45.182Z,25.13
2022-07-28T22:58:11.733Z,25.11
2022-07-28T23:00:38.342Z,25.12
2022-07-28T23:03:05.157Z,25.01
2022-07-28T23:05:32.216Z,24.97
2022-07-28T23:07:59.145Z,24.94
2022-07-28T23:10:26.329Z,24.95
2022-07-28T23:12:55.168Z,24.99
2022-07-28T23:15:25.182Z,24.99
2022-07-28T23:18:10.171Z,24.97
2022-07-28T23:20:38.343Z,24.92
2022-07-28T23:23:04.905Z,24.92
2022-07-28T23:25:31.631Z,24.77
2022-07-28T23:27:58.246Z,24.65
2022-07-28T23:30:24.840Z,24.65
2022-07-28T23:32:52.954Z,24.64
2022-07-28T23:35:19.511Z,24.60
2022-07-28T23:37:46.057Z,24.51
2022-07-28T23:40:13.219Z,24.53
2022-07-28T23:42:39.834Z,24.52
2022-07-28T23:45:06.866Z,24.53
2022-07-28T23:47:34.353Z,24.52
2022-07-28T23:50:02.158Z,24.46
2022-07-28T23:52:29.108Z,24.46
2022-07-28T23:54:55.876Z,24.43
2022-07-28T23:57:22.495Z,24.37
2022-07-28T23:59:49.028Z,24.34
